Time;durP1;ratioP1;P1;durP2;ratioP2;P2;SDS_P1;SDS_P2;PMS_P1;PMS_P2;Temp;Humidity;BMP_temperature;BMP_pressure;BME280_temperature;BME280_humidity;BME280_pressure;Samples;Min_cycle;Max_cycle;Signal;HPM_P1;HPM_P2
2021/01/07 00:02:31;;;;;;;11.50;7.45;;;;;;;1.93;98.54;100682.42;1792370;80;21289;-75
2021/01/07 00:05:37;;;;;;;26.82;6.30;;;;;;;1.97;98.55;100685.27;1792356;80;21735;-75
2021/01/07 00:08:43;;;;;;;11.48;6.58;;;;;;;1.99;98.47;100682.86;1790816;80;21799;-75
2021/01/07 00:11:51;;;;;;;8.78;5.47;;;;;;;2.01;98.37;100682.73;1791483;80;21327;-75
2021/01/07 00:14:57;;;;;;;24.57;7.55;;;;;;;2.05;98.33;100676.14;1792315;80;21898;-76
2021/01/07 00:18:02;;;;;;;63.20;8.13;;;;;;;2.11;98.26;100673.47;1792362;80;21748;-76
2021/01/07 00:21:08;;;;;;;51.42;7.42;;;;;;;2.17;98.25;100662.24;1792304;80;21305;-75
2021/01/07 00:24:14;;;;;;;11.35;6.15;;;;;;;2.28;98.33;100668.55;1792324;80;21162;-76
2021/01/07 00:27:19;;;;;;;7.83;5.87;;;;;;;2.35;98.27;100651.88;1792984;80;21882;-75
2021/01/07 00:30:26;;;;;;;12.05;6.33;;;;;;;2.39;98.06;100662.33;1791166;80;21209;-75
2021/01/07 00:33:31;;;;;;;8.58;5.62;;;;;;;2.34;97.71;100656.42;1792715;80;21186;-75
2021/01/07 00:36:37;;;;;;;9.15;5.50;;;;;;;2.24;97.31;100667.05;1792281;80;21186;-76
2021/01/07 00:39:43;;;;;;;12.07;6.72;;;;;;;2.17;97.08;100666.29;1791660;80;21288;-76
2021/01/07 00:42:50;;;;;;;8.50;6.20;;;;;;;2.08;96.92;100665.13;1791091;80;21320;-75
2021/01/07 00:45:55;;;;;;;8.75;5.17;;;;;;;2.02;96.91;100666.91;1792471;80;21304;-75
2021/01/07 00:49:01;;;;;;;8.85;5.78;;;;;;;1.98;96.98;100666.79;1792288;80;21309;-75
2021/01/07 00:52:09;;;;;;;9.25;6.33;;;;;;;1.93;97.10;100659.03;1792330;80;21292;-75
2021/01/07 00:55:18;;;;;;;12.07;7.80;;;;;;;1.93;97.25;100655.44;1792247;80;21299;-76
2021/01/07 00:58:25;;;;;;;10.98;7.50;;;;;;;1.95;97.44;100657.56;1792059;80;21320;-75
2021/01/07 01:01:31;;;;;;;10.82;7.08;;;;;;;1.99;97.66;100658.56;1793372;79;21323;-75
2021/01/07 01:04:37;;;;;;;25.37;8.30;;;;;;;2.02;97.79;100659.70;1797924;80;21295;-76
2021/01/07 01:07:43;;;;;;;12.20;7.85;;;;;;;2.06;97.97;100665.71;1796471;80;21233;-75
2021/01/07 01:10:52;;;;;;;11.75;7.53;;;;;;;2.10;98.15;100655.06;1796398;80;21324;-76
2021/01/07 01:13:58;;;;;;;9.33;6.65;;;;;;;2.12;98.30;100645.50;1797941;80;21295;-75
2021/01/07 01:17:04;;;;;;;13.53;8.73;;;;;;;2.13;98.43;100635.96;1797948;80;21319;-75
2021/01/07 01:20:10;;;;;;;9.10;6.60;;;;;;;2.12;98.56;100633.36;1797341;80;21212;-76
2021/01/07 01:23:15;;;;;;;9.35;6.75;;;;;;;2.04;98.70;100615.06;1798085;80;21342;-76
2021/01/07 01:26:25;;;;;;;9.75;6.92;;;;;;;1.98;99.01;100616.87;1797963;80;21879;-75
2021/01/07 01:29:30;;;;;;;10.32;7.17;;;;;;;1.98;99.41;100622.27;1797897;80;21319;-75
2021/01/07 01:32:36;;;;;;;9.90;6.67;;;;;;;1.97;99.80;100618.68;1797900;80;21279;-76
2021/01/07 01:35:41;;;;;;;10.05;7.00;;;;;;;1.98;100.00;100622.27;1796939;80;21778;-75
2021/01/07 01:38:48;;;;;;;15.83;8.03;;;;;;;2.02;100.00;100618.34;1797951;80;21287;-75
2021/01/07 01:41:54;;;;;;;10.70;7.15;;;;;;;2.06;100.00;100614.44;1796319;80;21776;-75
2021/01/07 01:45:00;;;;;;;11.75;6.60;;;;;;;2.10;100.00;100615.08;1796428;80;21228;-75
2021/01/07 01:48:06;;;;;;;9.93;6.92;;;;;;;2.13;100.00;100612.16;1797834;80;21300;-75
2021/01/07 01:51:13;;;;;;;10.80;7.67;;;;;;;2.16;100.00;100611.42;1796925;80;21862;-75
2021/01/07 01:54:18;;;;;;;9.13;6.90;;;;;;;2.19;100.00;100605.80;1797939;80;21276;-76
2021/01/07 01:57:25;;;;;;;11.40;6.70;;;;;;;2.22;100.00;100598.84;1797794;80;21815;-75
2021/01/07 02:00:31;;;;;;;9.68;7.33;;;;;;;2.24;100.00;100591.96;1797796;80;21189;-75
2021/01/07 02:03:36;;;;;;;10.65;6.97;;;;;;;2.30;100.00;100593.70;1791547;79;21308;-75
2021/01/07 02:06:43;;;;;;;12.98;7.55;;;;;;;2.35;100.00;100587.09;1792305;80;21288;-75
2021/01/07 02:09:52;;;;;;;10.55;7.22;;;;;;;2.37;100.00;100583.80;1792263;80;21863;-75
2021/01/07 02:12:57;;;;;;;9.50;6.70;;;;;;;2.42;100.00;100585.66;1792170;80;21323;-76
2021/01/07 02:16:03;;;;;;;10.48;7.47;;;;;;;2.49;100.00;100582.84;1792360;80;21618;-75
2021/01/07 02:19:08;;;;;;;16.00;8.35;;;;;;;2.53;100.00;100578.44;1792376;80;21177;-75
2021/01/07 02:22:15;;;;;;;8.50;6.53;;;;;;;2.60;100.00;100573.45;1790980;80;21288;-76
2021/01/07 02:25:21;;;;;;;12.85;8.18;;;;;;;2.69;100.00;100582.19;1792202;80;21332;-76
2021/01/07 02:28:28;;;;;;;21.57;12.47;;;;;;;2.76;100.00;100579.36;1790887;80;21312;-76
2021/01/07 02:31:35;;;;;;;32.05;16.17;;;;;;;2.86;100.00;100575.94;1791403;80;21323;-76
2021/01/07 02:34:42;;;;;;;66.33;24.57;;;;;;;2.94;100.00;100573.50;1791998;80;21315;-75
2021/01/07 02:37:48;;;;;;;37.50;18.40;;;;;;;3.00;100.00;100568.95;1792290;80;21154;-76
2021/01/07 02:40:54;;;;;;;39.98;19.37;;;;;;;3.06;100.00;100571.19;1792055;80;21359;-75
2021/01/07 02:44:00;;;;;;;37.88;18.23;;;;;;;3.08;100.00;100570.07;1791759;80;21930;-75
2021/01/07 02:47:05;;;;;;;42.85;21.20;;;;;;;3.11;100.00;100574.88;1792334;80;21336;-76
2021/01/07 02:50:14;;;;;;;49.48;22.22;;;;;;;3.11;100.00;100573.03;1792393;80;21288;-76
2021/01/07 02:53:19;;;;;;;46.65;21.42;;;;;;;3.14;100.00;100574.12;1792538;80;21296;-75
2021/01/07 02:56:25;;;;;;;53.75;23.90;;;;;;;3.15;100.00;100573.13;1792293;80;21285;-75
2021/01/07 02:59:31;;;;;;;56.58;21.50;;;;;;;3.16;100.00;100580.28;1791669;80;21213;-76
2021/01/07 03:02:36;;;;;;;41.05;18.85;;;;;;;3.16;100.00;100581.64;1791044;80;21296;-75
2021/01/07 03:05:41;;;;;;;68.85;26.30;;;;;;;3.16;100.00;100572.67;1792317;80;21324;-75
2021/01/07 03:08:45;;;;;;;88.52;32.88;;;;;;;3.14;100.00;100578.17;1790861;80;21287;-75
2021/01/07 03:11:44;;;;;;;93.07;37.75;;;;;;;3.10;100.00;100574.00;1791779;80;21216;-76
2021/01/07 03:14:50;;;;;;;94.17;39.00;;;;;;;3.07;100.00;100571.55;1791469;80;21256;-76
2021/01/07 03:17:56;;;;;;;83.85;34.58;;;;;;;3.04;100.00;100569.08;1790914;80;21344;-76
2021/01/07 03:21:02;;;;;;;85.72;38.92;;;;;;;3.01;100.00;100565.27;1790826;80;21819;-76
2021/01/07 03:24:09;;;;;;;97.65;43.15;;;;;;;3.00;100.00;100573.01;1792469;80;21327;-75
2021/01/07 03:27:14;;;;;;;97.60;40.75;;;;;;;3.00;100.00;100568.95;1792420;80;21854;-75
2021/01/07 03:30:20;;;;;;;82.35;35.45;;;;;;;3.01;100.00;100560.75;1791448;80;21379;-75
2021/01/07 03:33:26;;;;;;;71.67;29.57;;;;;;;3.05;100.00;100562.69;1792294;80;21339;-75
2021/01/07 03:36:33;;;;;;;45.92;21.27;;;;;;;3.10;100.00;100573.14;1792319;80;21292;-75
2021/01/07 03:39:38;;;;;;;40.92;21.35;;;;;;;3.13;100.00;100564.80;1792288;80;21291;-76
2021/01/07 03:42:43;;;;;;;34.30;18.25;;;;;;;3.15;100.00;100558.76;1791268;80;21304;-76
2021/01/07 03:45:49;;;;;;;24.05;13.30;;;;;;;3.16;100.00;100562.72;1790921;80;21197;-76
2021/01/07 03:48:55;;;;;;;21.05;12.03;;;;;;;3.19;100.00;100561.59;1792133;80;21907;-75
2021/01/07 03:52:01;;;;;;;18.77;12.53;;;;;;;3.18;100.00;100554.47;1791657;80;21324;-75
2021/01/07 03:55:07;;;;;;;18.57;10.25;;;;;;;3.21;100.00;100551.53;1791984;80;21315;-75
2021/01/07 03:58:13;;;;;;;19.87;11.48;;;;;;;3.24;100.00;100553.47;1790467;80;21342;-76
2021/01/07 04:01:20;;;;;;;18.73;12.37;;;;;;;3.26;100.00;100543.41;1791592;80;21562;-75
2021/01/07 04:04:26;;;;;;;20.17;13.78;;;;;;;3.26;100.00;100532.60;1792074;79;21322;-76
2021/01/07 04:07:31;;;;;;;19.55;12.05;;;;;;;3.22;100.00;100522.16;1796182;80;21184;-76
2021/01/07 04:10:37;;;;;;;24.32;15.05;;;;;;;3.18;100.00;100529.65;1797701;80;21286;-75
2021/01/07 04:13:44;;;;;;;24.20;13.68;;;;;;;3.18;100.00;100534.20;1796540;80;21866;-75
2021/01/07 04:16:49;;;;;;;21.15;13.60;;;;;;;3.17;100.00;100529.29;1796586;80;21375;-75
2021/01/07 04:19:55;;;;;;;19.77;12.78;;;;;;;3.20;100.00;100524.11;1797970;80;21823;-75
2021/01/07 04:23:01;;;;;;;20.35;13.40;;;;;;;3.19;100.00;100521.05;1797247;80;21181;-75
2021/01/07 04:26:08;;;;;;;18.95;12.70;;;;;;;3.19;100.00;100530.51;1797951;80;21184;-75
2021/01/07 04:29:14;;;;;;;16.87;10.75;;;;;;;3.19;100.00;100539.47;1798946;80;21276;-75
2021/01/07 04:32:20;;;;;;;26.82;12.23;;;;;;;3.22;100.00;100524.37;1797848;80;21327;-76
2021/01/07 04:35:25;;;;;;;31.48;13.50;;;;;;;3.25;100.00;100517.38;1796450;80;21204;-76
2021/01/07 04:38:31;;;;;;;18.45;11.35;;;;;;;3.31;100.00;100501.99;1797958;80;21575;-75
2021/01/07 04:41:37;;;;;;;14.83;10.15;;;;;;;3.37;100.00;100497.06;1797954;80;21824;-76
2021/01/07 04:44:42;;;;;;;23.77;11.20;;;;;;;3.38;100.00;100500.12;1797903;80;21295;-76
2021/01/07 04:47:48;;;;;;;24.65;10.98;;;;;;;3.38;100.00;100498.78;1797930;80;21284;-76
2021/01/07 04:50:55;;;;;;;19.77;11.08;;;;;;;3.38;100.00;100486.61;1797865;80;21822;-75
2021/01/07 04:54:01;;;;;;;16.55;11.80;;;;;;;3.37;100.00;100480.84;1796767;80;21267;-75
2021/01/07 04:57:06;;;;;;;16.12;10.75;;;;;;;3.39;100.00;100476.16;1797927;80;21374;-76
2021/01/07 05:00:14;;;;;;;17.57;10.98;;;;;;;3.41;100.00;100469.65;1797954;80;21508;-75
2021/01/07 05:03:28;;;;;;;19.27;12.73;;;;;;;3.41;100.00;100462.03;1797513;80;21295;-75
2021/01/07 05:06:34;;;;;;;22.15;12.10;;;;;;;3.40;100.00;100461.67;1792813;79;21407;-75
2021/01/07 05:09:40;;;;;;;18.15;12.30;;;;;;;3.38;100.00;100452.81;1792290;80;21292;-75
2021/01/07 05:12:46;;;;;;;18.00;11.83;;;;;;;3.42;100.00;100456.98;1791734;80;21229;-76
2021/01/07 05:15:52;;;;;;;16.50;11.60;;;;;;;3.43;100.00;100462.75;1792200;80;21343;-75
2021/01/07 05:18:58;;;;;;;16.40;11.10;;;;;;;3.45;100.00;100463.50;1791979;80;21284;-75
2021/01/07 05:22:05;;;;;;;21.02;13.13;;;;;;;3.47;100.00;100470.98;1792121;80;21178;-75
2021/01/07 05:25:12;;;;;;;18.00;11.90;;;;;;;3.51;100.00;100479.20;1792181;80;21335;-76
2021/01/07 05:28:17;;;;;;;23.80;13.32;;;;;;;3.54;100.00;100477.62;1777649;80;21362;-75
2021/01/07 05:31:31;;;;;;;16.05;11.18;;;;;;;3.57;100.00;100477.34;1776669;80;21343;-75
2021/01/07 05:34:36;;;;;;;16.60;12.37;;;;;;;3.59;100.00;100472.19;1790664;80;21323;-76
2021/01/07 05:37:45;;;;;;;16.67;12.18;;;;;;;3.62;100.00;100476.46;1792173;80;21177;-76
2021/01/07 05:40:50;;;;;;;16.27;11.12;;;;;;;3.63;100.00;100475.50;1792379;80;21177;-75
2021/01/07 05:44:11;;;;;;;18.85;11.38;;;;;;;3.63;100.00;100467.38;1790802;80;21281;-75
2021/01/07 05:47:15;;;;;;;;;;;;;;;3.65;100.00;100471.30;1794461;80;21207;-75
2021/01/07 05:50:22;;;;;;;21.45;14.43;;;;;;;3.65;100.00;100461.34;1792344;80;20280;-76
2021/01/07 05:53:27;;;;;;;18.87;13.45;;;;;;;3.65;100.00;100456.42;1792176;80;21328;-76
2021/01/07 05:56:33;;;;;;;20.60;14.23;;;;;;;3.65;100.00;100459.13;1792315;80;21320;-75
2021/01/07 05:59:40;;;;;;;21.05;13.60;;;;;;;3.66;100.00;100463.55;1790776;80;21295;-76
2021/01/07 06:02:48;;;;;;;22.80;14.38;;;;;;;3.65;100.00;100453.22;1791370;80;21316;-76
2021/01/07 06:05:53;;;;;;;19.55;13.70;;;;;;;3.64;100.00;100447.45;1792323;80;21284;-75
2021/01/07 06:09:01;;;;;;;22.37;13.62;;;;;;;3.65;100.00;100446.46;1792315;80;21292;-76
2021/01/07 06:12:08;;;;;;;17.82;11.95;;;;;;;3.65;100.00;100443.75;1792314;80;21292;-76
2021/01/07 06:15:17;;;;;;;19.35;11.90;;;;;;;3.61;100.00;100442.30;1791133;80;21323;-76
2021/01/07 06:18:24;;;;;;;19.10;10.55;;;;;;;3.59;100.00;100441.58;1791204;80;21312;-76
2021/01/07 06:21:30;;;;;;;23.90;13.95;;;;;;;3.57;100.00;100443.53;1776863;80;21803;-76
2021/01/07 06:24:38;;;;;;;24.18;14.20;;;;;;;3.56;100.00;100437.77;1776441;80;21288;-76
2021/01/07 06:27:43;;;;;;;29.63;16.30;;;;;;;3.58;100.00;100431.25;1792252;80;21218;-76
2021/01/07 06:30:49;;;;;;;35.30;17.37;;;;;;;3.61;100.00;100433.32;1776886;80;21177;-77
2021/01/07 06:33:59;;;;;;;27.40;15.35;;;;;;;3.64;100.00;100424.46;1756434;80;21339;-77
2021/01/07 06:37:05;;;;;;;27.75;15.58;;;;;;;3.67;100.00;100428.27;1792320;80;21181;-77
2021/01/07 06:40:18;;;;;;;20.02;12.28;;;;;;;3.67;100.00;100429.63;1775215;80;21178;-76
2021/01/07 06:43:25;;;;;;;22.30;13.15;;;;;;;3.73;100.00;100444.48;1790794;80;21296;-77
2021/01/07 06:46:47;;;;;;;18.70;12.00;;;;;;;3.78;100.00;100444.45;1792277;80;21295;-76
2021/01/07 06:49:52;;;;;;;17.27;11.68;;;;;;;3.81;100.00;100438.78;1792269;80;22531;-76
2021/01/07 06:52:57;;;;;;;18.30;11.55;;;;;;;3.83;100.00;100434.59;1792302;80;21292;-76
2021/01/07 06:56:25;;;;;;;15.38;9.83;;;;;;;3.83;100.00;100425.97;1790968;80;21213;-76
2021/01/07 06:59:30;;;;;;;18.48;10.38;;;;;;;3.88;100.00;100428.78;1792553;80;21185;-76
2021/01/07 07:02:36;;;;;;;16.73;10.68;;;;;;;3.90;100.00;100432.20;1792561;80;21233;-76
2021/01/07 07:05:46;;;;;;;17.10;10.88;;;;;;;3.96;100.00;100423.59;1791141;80;21236;-76
2021/01/07 07:08:53;;;;;;;15.50;10.23;;;;;;;3.99;100.00;100425.52;1794781;79;21208;-76
2021/01/07 07:12:02;;;;;;;15.65;9.58;;;;;;;4.01;100.00;100416.78;1797899;80;21307;-76
2021/01/07 07:15:07;;;;;;;30.10;15.38;;;;;;;4.03;100.00;100413.94;1797257;80;21370;-76
2021/01/07 07:18:13;;;;;;;73.55;32.58;;;;;;;4.05;100.00;100410.63;1797754;80;21251;-76
2021/01/07 07:21:26;;;;;;;86.40;39.65;;;;;;;4.04;100.00;100406.17;1798845;80;21298;-76
2021/01/07 07:24:50;;;;;;;76.65;34.03;;;;;;;4.06;100.00;100409.63;1798133;80;21180;-76
2021/01/07 07:28:01;;;;;;;51.85;25.97;;;;;;;4.06;100.00;100405.06;1775573;80;21288;-76
2021/01/07 07:31:07;;;;;;;39.65;20.35;;;;;;;4.08;100.00;100404.92;1797820;80;21299;-76
2021/01/07 07:34:13;;;;;;;27.87;14.45;;;;;;;4.09;100.00;100406.63;1796957;80;21265;-76
2021/01/07 07:37:35;;;;;;;15.35;10.35;;;;;;;4.09;100.00;100404.81;1797773;80;21815;-76
2021/01/07 07:40:47;;;;;;;15.45;9.83;;;;;;;4.13;100.00;100399.11;1797877;80;21323;-76
2021/01/07 07:43:53;;;;;;;15.40;11.40;;;;;;;4.16;100.00;100405.12;1797980;80;21292;-76
2021/01/07 07:47:00;;;;;;;19.32;12.05;;;;;;;4.19;100.00;100398.09;1798003;80;21307;-76
2021/01/07 07:50:07;;;;;;;18.12;10.75;;;;;;;4.22;100.00;100389.69;1796384;80;21192;-75
2021/01/07 07:53:20;;;;;;;18.15;10.53;;;;;;;4.23;100.00;100386.48;1797925;80;21311;-76
2021/01/07 07:56:30;;;;;;;14.47;10.60;;;;;;;4.24;100.00;100389.08;1796879;80;22537;-75
2021/01/07 07:59:36;;;;;;;;;;;;;;;4.26;100.00;100395.20;1801122;80;21304;-77
2021/01/07 08:02:42;;;;;;;16.15;10.72;;;;;;;4.28;100.00;100382.87;1797953;80;20269;-76
2021/01/07 08:05:47;;;;;;;16.42;11.22;;;;;;;4.29;100.00;100388.67;1796595;80;21220;-76
2021/01/07 08:08:52;;;;;;;20.43;11.40;;;;;;;4.30;100.00;100381.77;1772916;79;21826;-76
2021/01/07 08:12:05;;;;;;;23.22;11.80;;;;;;;4.33;100.00;100376.59;1792414;80;21304;-75
2021/01/07 08:15:11;;;;;;;14.80;10.05;;;;;;;4.35;100.00;100374.59;1790802;80;21717;-76
2021/01/07 08:18:29;;;;;;;13.78;9.95;;;;;;;4.38;100.00;100365.36;1792374;80;21775;-76
2021/01/07 08:21:35;;;;;;;15.58;9.83;;;;;;;4.39;100.00;100361.14;1792361;80;21276;-77
2021/01/07 08:24:41;;;;;;;14.45;9.60;;;;;;;4.43;100.00;100363.09;1792372;80;21355;-76
2021/01/07 08:27:46;;;;;;;13.30;9.25;;;;;;;4.45;100.00;100362.45;1792372;80;21232;-76
2021/01/07 08:30:57;;;;;;;13.13;9.65;;;;;;;4.48;100.00;100346.79;1792382;80;21733;-76
2021/01/07 08:34:03;;;;;;;12.33;9.65;;;;;;;4.47;100.00;100350.50;1788582;80;21296;-76
2021/01/07 08:37:26;;;;;;;13.83;8.75;;;;;;;4.48;100.00;100344.58;1791214;80;21323;-76
2021/01/07 08:40:32;;;;;;;12.53;9.50;;;;;;;4.48;100.00;100341.87;1792323;80;21276;-76
2021/01/07 08:43:38;;;;;;;18.67;8.93;;;;;;;4.47;100.00;100331.54;1792307;80;21284;-76
2021/01/07 08:46:51;;;;;;;16.80;9.88;;;;;;;4.46;100.00;100328.95;1791475;80;21287;-76
2021/01/07 08:50:16;;;;;;;15.78;10.58;;;;;;;4.44;100.00;100319.61;1790594;79;21228;-76
2021/01/07 08:53:22;;;;;;;17.05;10.18;;;;;;;4.45;100.00;100313.70;1792543;80;21784;-77
2021/01/07 08:56:42;;;;;;;13.00;9.45;;;;;;;4.45;100.00;100305.56;1791846;80;21626;-76
2021/01/07 08:59:47;;;;;;;15.60;10.70;;;;;;;4.44;100.00;100295.73;1792769;80;21918;-76
2021/01/07 09:02:53;;;;;;;14.25;9.88;;;;;;;4.45;100.00;100296.09;1792264;80;21280;-76
2021/01/07 09:06:15;;;;;;;14.63;10.13;;;;;;;4.44;100.00;100283.05;1791572;80;21205;-77
2021/01/07 09:09:20;;;;;;;15.28;10.72;;;;;;;4.46;100.00;100285.61;1792366;80;21701;-76
2021/01/07 09:12:33;;;;;;;15.60;9.80;;;;;;;4.49;100.00;100279.92;1792353;80;21276;-75
2021/01/07 09:15:40;;;;;;;16.02;10.30;;;;;;;4.51;100.00;100281.98;1790816;80;21728;-76
2021/01/07 09:18:45;;;;;;;17.85;9.23;;;;;;;4.54;100.00;100279.02;1792238;80;21735;-76
2021/01/07 09:21:50;;;;;;;15.53;10.00;;;;;;;4.54;100.00;100273.09;1791007;80;21319;-76
2021/01/07 09:24:55;;;;;;;15.32;10.40;;;;;;;4.55;100.00;100261.25;1792409;80;21162;-76
2021/01/07 09:28:03;;;;;;;13.85;10.30;;;;;;;4.57;100.00;100259.78;1791144;80;21169;-76
2021/01/07 09:31:08;;;;;;;17.02;10.85;;;;;;;4.60;100.00;100260.34;1777210;80;21288;-76
2021/01/07 09:34:13;;;;;;;12.58;9.30;;;;;;;4.62;100.00;100252.09;1792290;80;21856;-76
2021/01/07 09:37:27;;;;;;;14.63;9.53;;;;;;;4.64;100.00;100237.89;1790864;80;21867;-76
2021/01/07 09:40:32;;;;;;;14.47;10.00;;;;;;;4.68;100.00;100240.69;1790896;80;21933;-76
2021/01/07 09:43:44;;;;;;;17.05;11.03;;;;;;;4.72;100.00;100240.77;1792305;80;21340;-75
2021/01/07 09:46:50;;;;;;;16.30;10.72;;;;;;;4.75;100.00;100233.72;1792026;80;21323;-77
2021/01/07 09:49:58;;;;;;;14.15;10.63;;;;;;;4.81;100.00;100207.91;1792328;80;21848;-76
2021/01/07 09:53:04;;;;;;;14.47;9.75;;;;;;;4.85;100.00;100208.84;1792347;80;21344;-76
2021/01/07 09:56:10;;;;;;;14.93;10.20;;;;;;;4.92;100.00;100205.55;1791348;80;21308;-76
2021/01/07 09:59:17;;;;;;;11.75;7.87;;;;;;;4.99;100.00;100198.57;1792345;80;21348;-76
2021/01/07 10:02:23;;;;;;;10.98;8.28;;;;;;;5.08;100.00;100190.91;1792280;80;21343;-76
2021/01/07 10:05:28;;;;;;;10.85;8.10;;;;;;;5.18;100.00;100165.16;1792371;80;21288;-76
2021/01/07 10:08:34;;;;;;;12.73;9.08;;;;;;;5.26;100.00;100151.20;1791075;80;21221;-76
2021/01/07 10:11:39;;;;;;;11.65;9.50;;;;;;;5.34;100.00;100151.84;1791204;79;21304;-76
2021/01/07 10:14:45;;;;;;;11.70;9.80;;;;;;;5.44;100.00;100147.74;1792320;80;21344;-76
2021/01/07 10:17:51;;;;;;;13.35;8.88;;;;;;;5.51;100.00;100138.03;1791623;80;21894;-76
2021/01/07 10:20:57;;;;;;;14.98;8.48;;;;;;;5.57;100.00;100136.06;1790695;80;21548;-76
2021/01/07 10:24:03;;;;;;;14.20;9.70;;;;;;;5.63;100.00;100125.97;1792432;80;21847;-75
2021/01/07 10:27:14;;;;;;;12.88;9.05;;;;;;;5.70;100.00;100128.45;1791550;80;21307;-76
2021/01/07 10:30:21;;;;;;;12.65;9.08;;;;;;;5.75;100.00;100112.57;1792294;80;21764;-75
2021/01/07 10:33:28;;;;;;;11.70;8.23;;;;;;;5.79;100.00;100104.48;1792436;80;21304;-76
2021/01/07 10:36:34;;;;;;;13.60;8.98;;;;;;;5.83;100.00;100078.75;1790747;80;21300;-76
2021/01/07 10:39:44;;;;;;;12.93;8.95;;;;;;;5.90;100.00;100078.48;1792362;80;21609;-77
2021/01/07 10:42:51;;;;;;;14.53;10.35;;;;;;;5.95;100.00;100051.42;1791021;80;21308;-76
2021/01/07 10:46:03;;;;;;;11.95;9.48;;;;;;;5.98;100.00;100044.34;1792318;80;21154;-76
2021/01/07 10:49:09;;;;;;;15.32;9.10;;;;;;;6.03;100.00;100029.28;1790989;80;21285;-76
2021/01/07 10:52:18;;;;;;;16.02;10.40;;;;;;;6.08;100.00;100015.25;1791906;80;21264;-76
2021/01/07 10:55:34;;;;;;;16.12;11.03;;;;;;;6.13;100.00;100016.48;1790806;80;21284;-75
2021/01/07 10:59:04;;;;;;;19.17;12.00;;;;;;;6.18;100.00;100005.16;1791601;80;21885;-76
2021/01/07 11:02:31;;;;;;;18.12;12.03;;;;;;;6.23;100.00;99974.30;1792448;80;21799;-76
2021/01/07 11:05:44;;;;;;;18.23;12.15;;;;;;;6.31;100.00;99987.97;1792161;80;21177;-76
2021/01/07 11:09:13;;;;;;;23.20;12.35;;;;;;;6.39;100.00;99983.09;1790969;80;21363;-77
2021/01/07 11:12:23;;;;;;;18.82;12.95;;;;;;;6.46;100.00;99971.10;1790621;79;21305;-76
2021/01/07 11:15:30;;;;;;;;;;;;;;;6.52;100.00;99970.45;1800872;80;21830;-76
2021/01/07 11:18:38;;;;;;;24.20;13.00;;;;;;;6.59;100.00;99959.31;1797306;80;20217;-76
2021/01/07 11:21:50;;;;;;;18.98;12.25;;;;;;;6.64;100.00;99967.84;1798265;80;21350;-76
2021/01/07 11:25:01;;;;;;;18.17;10.72;;;;;;;6.72;100.00;99970.59;1797938;80;21736;-76
2021/01/07 11:28:05;;;;;;;18.67;10.78;;;;;;;6.78;100.00;99961.81;1777532;80;21256;-76
2021/01/07 11:31:09;;;;;;;16.07;9.85;;;;;;;6.84;100.00;99969.33;1798274;80;21344;-76
2021/01/07 11:34:15;;;;;;;15.80;8.93;;;;;;;6.88;100.00;99957.12;1797842;80;21731;-76
2021/01/07 11:37:48;;;;;;;14.95;9.85;;;;;;;6.94;100.00;99945.25;1796338;80;21296;-76
2021/01/07 11:41:09;;;;;;;14.75;8.73;;;;;;;7.00;100.00;99948.16;1797952;80;21303;-76
2021/01/07 11:44:29;;;;;;;11.10;8.60;;;;;;;7.06;100.00;99943.96;1797899;80;21219;-76
2021/01/07 11:47:37;;;;;;;14.05;8.93;;;;;;;7.10;100.00;99942.08;1797922;80;21835;-77
2021/01/07 11:50:50;;;;;;;12.20;8.65;;;;;;;7.13;100.00;99940.41;1797944;80;21339;-76
2021/01/07 11:53:56;;;;;;;13.83;9.90;;;;;;;7.15;100.00;99928.00;1797062;80;21307;-76
2021/01/07 11:57:02;;;;;;;14.20;9.48;;;;;;;7.16;100.00;99921.56;1797985;80;21288;-76
2021/01/07 12:00:13;;;;;;;16.57;10.10;;;;;;;7.16;100.00;99914.25;1796644;80;21252;-76
2021/01/07 12:03:21;;;;;;;15.03;9.40;;;;;;;7.16;100.00;99921.56;1797941;80;21835;-76
2021/01/07 12:06:27;;;;;;;19.57;10.88;;;;;;;7.17;100.00;99915.95;1797963;80;21331;-76
2021/01/07 12:09:43;;;;;;;19.17;10.82;;;;;;;7.19;100.00;99906.25;1755155;80;21335;-76
2021/01/07 12:13:12;;;;;;;19.23;10.95;;;;;;;7.19;100.00;99910.33;1797916;80;21288;-77
2021/01/07 12:16:25;;;;;;;17.77;10.58;;;;;;;7.17;100.00;99904.22;1800905;79;21288;-76
2021/01/07 12:19:32;;;;;;;15.40;10.05;;;;;;;7.18;100.00;99900.48;1801616;79;21863;-77
2021/01/07 12:22:37;;;;;;;20.77;12.20;;;;;;;7.16;100.00;99888.92;1799615;79;21903;-76
2021/01/07 12:25:45;;;;;;;18.77;11.88;;;;;;;7.14;100.00;99890.94;1800956;79;21791;-76
2021/01/07 12:28:52;;;;;;;19.35;12.33;;;;;;;7.12;100.00;99876.66;1800923;79;21295;-76
2021/01/07 12:32:05;;;;;;;17.37;12.33;;;;;;;7.10;100.00;99866.44;1800931;79;21432;-76
2021/01/07 12:35:20;;;;;;;23.47;14.47;;;;;;;7.10;100.00;99859.64;1800760;79;21363;-76
2021/01/07 12:38:36;;;;;;;24.55;15.90;;;;;;;7.08;100.00;99852.17;1799496;79;21332;-76
2021/01/07 12:41:59;;;;;;;22.98;15.53;;;;;;;7.08;100.00;99844.02;1800970;79;21275;-76
2021/01/07 12:45:07;;;;;;;25.75;16.82;;;;;;;7.08;100.00;99848.94;1801627;79;21296;-77
2021/01/07 12:48:13;;;;;;;24.10;15.83;;;;;;;7.08;100.00;99845.38;1801026;79;21331;-76
2021/01/07 12:51:21;;;;;;;31.12;16.67;;;;;;;7.07;100.00;99831.44;1799546;79;21767;-76
2021/01/07 12:54:27;;;;;;;27.50;18.17;;;;;;;7.07;100.00;99836.88;1799878;79;21858;-76
2021/01/07 12:57:40;;;;;;;28.02;17.67;;;;;;;7.08;100.00;99830.41;1800982;79;21299;-76
2021/01/07 13:00:56;;;;;;;29.65;18.00;;;;;;;7.08;100.00;99824.97;1799709;79;21347;-76
2021/01/07 13:04:09;;;;;;;28.07;17.50;;;;;;;7.10;100.00;99828.36;1777355;79;21299;-76
2021/01/07 13:07:16;;;;;;;22.62;17.00;;;;;;;7.09;100.00;99820.72;1799244;79;21708;-76
2021/01/07 13:10:22;;;;;;;31.27;17.92;;;;;;;7.09;100.00;99802.20;1799103;79;21386;-77
2021/01/07 13:13:31;;;;;;;30.25;18.55;;;;;;;7.07;100.00;99805.60;1799115;79;21347;-76
2021/01/07 13:16:38;;;;;;;26.65;17.10;;;;;;;7.09;100.00;99800.83;1795509;79;21862;-77
2021/01/07 13:19:43;;;;;;;25.92;16.90;;;;;;;7.09;100.00;99804.91;1796344;80;21323;-77
2021/01/07 13:22:49;;;;;;;31.68;18.37;;;;;;;7.07;100.00;99787.41;1797985;80;21358;-76
2021/01/07 13:25:54;;;;;;;29.12;17.17;;;;;;;7.07;100.00;99783.84;1775142;80;21355;-76
2021/01/07 13:29:01;;;;;;;32.67;17.37;;;;;;;7.05;100.00;99770.91;1798255;80;21863;-76
2021/01/07 13:32:08;;;;;;;27.02;16.45;;;;;;;7.02;100.00;99759.02;1797848;80;21834;-76
2021/01/07 13:35:14;;;;;;;30.92;16.07;;;;;;;6.99;100.00;99756.63;1797206;80;21859;-76
2021/01/07 13:38:19;;;;;;;30.62;15.45;;;;;;;6.99;100.00;99752.03;1798176;80;21287;-76
2021/01/07 13:41:25;;;;;;;30.60;16.05;;;;;;;7.00;100.00;99744.73;1796457;80;21389;-75
2021/01/07 13:44:30;;;;;;;24.05;15.88;;;;;;;6.99;100.00;99746.59;1797866;80;21276;-76
2021/01/07 13:47:40;;;;;;;25.17;15.23;;;;;;;7.01;100.00;99732.34;1796410;80;21724;-76
2021/01/07 13:50:45;;;;;;;22.87;13.83;;;;;;;7.01;100.00;99731.47;1798793;80;21264;-76
2021/01/07 13:53:50;;;;;;;31.73;16.90;;;;;;;7.02;100.00;99723.67;1798268;80;21323;-76
2021/01/07 13:56:55;;;;;;;26.27;16.05;;;;;;;7.03;100.00;99714.48;1796382;80;21311;-76
2021/01/07 14:00:03;;;;;;;22.60;14.13;;;;;;;7.03;100.00;99711.77;1797830;80;21386;-77
2021/01/07 14:03:09;;;;;;;28.95;15.23;;;;;;;7.04;100.00;99721.11;1797854;80;21724;-76
2021/01/07 14:06:16;;;;;;;26.17;15.08;;;;;;;7.07;100.00;99715.86;1797874;80;21350;-76
2021/01/07 14:09:30;;;;;;;26.17;14.55;;;;;;;7.09;100.00;99710.58;1797855;80;21331;-76
2021/01/07 14:12:37;;;;;;;24.30;15.32;;;;;;;7.09;100.00;99710.58;1796384;80;21288;-76
2021/01/07 14:15:43;;;;;;;23.40;14.73;;;;;;;7.10;100.00;99705.47;1797810;79;22416;-76
2021/01/07 14:18:51;;;;;;;27.85;15.05;;;;;;;7.12;100.00;99698.52;1796483;80;22415;-76
2021/01/07 14:21:56;;;;;;;24.45;14.63;;;;;;;7.12;100.00;99703.45;1796740;80;21621;-76
2021/01/07 14:25:03;;;;;;;26.57;14.87;;;;;;;7.13;100.00;99693.42;1797877;80;21220;-76